sensor_id;sensor_type;location;lat;lon;timestamp;pressure;altitude;pressure_sealevel;temperature;humidity
59493;BME280;45497;43.996;22.876;2023-02-11T00:00:20;103315.78;;;-1.25;50.14
59493;BME280;45497;43.996;22.876;2023-02-11T00:02:45;103310.28;;;-1.10;49.91
59493;BME280;45497;43.996;22.876;2023-02-11T00:05:11;103306.88;;;-1.13;49.71
59493;BME280;45497;43.996;22.876;2023-02-11T00:07:36;103304.94;;;-1.02;49.57
59493;BME280;45497;43.996;22.876;2023-02-11T00:10:03;103299.84;;;-1.08;49.51
59493;BME280;45497;43.996;22.876;2023-02-11T00:12:33;103300.63;;;-1.05;49.34
59493;BME280;45497;43.996;22.876;2023-02-11T00:14:58;103297.97;;;-1.02;49.25
59493;BME280;45497;43.996;22.876;2023-02-11T00:17:24;103294.31;;;-0.93;49.15
59493;BME280;45497;43.996;22.876;2023-02-11T00:19:53;103298.50;;;-0.84;49.11
59493;BME280;45497;43.996;22.876;2023-02-11T00:22:18;103301.88;;;-0.81;49.00
59493;BME280;45497;43.996;22.876;2023-02-11T00:24:44;103307.09;;;-0.81;48.63
59493;BME280;45497;43.996;22.876;2023-02-11T00:27:10;103299.41;;;-0.87;48.58
59493;BME280;45497;43.996;22.876;2023-02-11T00:29:36;103299.28;;;-0.81;48.62
59493;BME280;45497;43.996;22.876;2023-02-11T00:32:02;103299.25;;;-0.79;48.71
59493;BME280;45497;43.996;22.876;2023-02-11T00:34:32;103294.91;;;-0.79;48.60
59493;BME280;45497;43.996;22.876;2023-02-11T00:36:58;103294.06;;;-0.79;48.55
59493;BME280;45497;43.996;22.876;2023-02-11T00:39:24;103303.53;;;-0.77;48.45
59493;BME280;45497;43.996;22.876;2023-02-11T00:41:49;103303.66;;;-0.83;48.61
59493;BME280;45497;43.996;22.876;2023-02-11T00:44:15;103298.53;;;-0.86;48.60
59493;BME280;45497;43.996;22.876;2023-02-11T00:46:40;103304.63;;;-0.88;48.57
59493;BME280;45497;43.996;22.876;2023-02-11T00:49:06;103289.97;;;-0.92;48.49
59493;BME280;45497;43.996;22.876;2023-02-11T00:51:31;103305.63;;;-0.94;48.88
59493;BME280;45497;43.996;22.876;2023-02-11T00:53:57;103307.34;;;-0.93;48.66
59493;BME280;45497;43.996;22.876;2023-02-11T00:56:23;103302.22;;;-0.98;48.48
59493;BME280;45497;43.996;22.876;2023-02-11T00:58:48;103305.50;;;-0.88;48.30
59493;BME280;45497;43.996;22.876;2023-02-11T01:01:14;103302.09;;;-0.90;48.57
59493;BME280;45497;43.996;22.876;2023-02-11T01:03:39;103293.31;;;-0.86;48.22
59493;BME280;45497;43.996;22.876;2023-02-11T01:06:07;103302.72;;;-0.79;48.08
59493;BME280;45497;43.996;22.876;2023-02-11T01:08:32;103289.97;;;-0.92;48.14
59493;BME280;45497;43.996;22.876;2023-02-11T01:11:04;103296.72;;;-0.84;48.06
59493;BME280;45497;43.996;22.876;2023-02-11T01:13:32;103292.41;;;-0.85;48.00
59493;BME280;45497;43.996;22.876;2023-02-11T01:15:58;103284.59;;;-0.85;48.22
59493;BME280;45497;43.996;22.876;2023-02-11T01:18:24;103287.34;;;-0.91;48.10
59493;BME280;45497;43.996;22.876;2023-02-11T01:20:50;103287.50;;;-0.99;48.07
59493;BME280;45497;43.996;22.876;2023-02-11T01:23:17;103283.31;;;-1.06;48.02
59493;BME280;45497;43.996;22.876;2023-02-11T01:25:42;103289.19;;;-0.98;48.09
59493;BME280;45497;43.996;22.876;2023-02-11T01:28:15;103282.91;;;-0.87;48.03
59493;BME280;45497;43.996;22.876;2023-02-11T01:30:41;103275.09;;;-0.86;47.73
59493;BME280;45497;43.996;22.876;2023-02-11T01:33:06;103272.44;;;-0.84;47.78
59493;BME280;45497;43.996;22.876;2023-02-11T01:35:32;103266.50;;;-0.91;47.79
59493;BME280;45497;43.996;22.876;2023-02-11T01:37:57;103270.09;;;-0.97;47.85
59493;BME280;45497;43.996;22.876;2023-02-11T01:40:23;103264.75;;;-0.90;47.71
59493;BME280;45497;43.996;22.876;2023-02-11T01:42:48;103263.63;;;-0.77;47.46
59493;BME280;45497;43.996;22.876;2023-02-11T01:48:37;103253.88;;;-0.69;47.37
59493;BME280;45497;43.996;22.876;2023-02-11T01:51:16;103254.53;;;-0.59;47.38
59493;BME280;45497;43.996;22.876;2023-02-11T01:53:43;103252.75;;;-0.57;47.25
59493;BME280;45497;43.996;22.876;2023-02-11T01:56:30;103251.78;;;-0.53;47.13
59493;BME280;45497;43.996;22.876;2023-02-11T01:59:27;103244.78;;;-0.51;46.88
59493;BME280;45497;43.996;22.876;2023-02-11T02:01:59;103251.72;;;-0.50;46.87
59493;BME280;45497;43.996;22.876;2023-02-11T02:04:29;103246.69;;;-0.57;46.87
59493;BME280;45497;43.996;22.876;2023-02-11T02:07:08;103249.44;;;-0.65;47.02
59493;BME280;45497;43.996;22.876;2023-02-11T02:09:45;103251.97;;;-0.61;46.93
59493;BME280;45497;43.996;22.876;2023-02-11T02:12:13;103253.56;;;-0.55;47.02
59493;BME280;45497;43.996;22.876;2023-02-11T02:14:40;103248.28;;;-0.52;46.67
59493;BME280;45497;43.996;22.876;2023-02-11T02:17:09;103242.34;;;-0.59;46.46
59493;BME280;45497;43.996;22.876;2023-02-11T02:20:02;103247.59;;;-0.60;46.86
59493;BME280;45497;43.996;22.876;2023-02-11T02:25:22;103243.22;;;-0.58;46.89
59493;BME280;45497;43.996;22.876;2023-02-11T02:28:10;103241.59;;;-0.64;46.55
59493;BME280;45497;43.996;22.876;2023-02-11T02:31:13;103244.97;;;-0.59;46.73
59493;BME280;45497;43.996;22.876;2023-02-11T02:34:06;103244.22;;;-0.64;46.58
59493;BME280;45497;43.996;22.876;2023-02-11T02:36:40;103256.50;;;-0.70;46.58
59493;BME280;45497;43.996;22.876;2023-02-11T02:39:15;103246.09;;;-0.70;46.34
59493;BME280;45497;43.996;22.876;2023-02-11T02:41:43;103238.34;;;-0.72;46.65
59493;BME280;45497;43.996;22.876;2023-02-11T02:44:10;103249.69;;;-0.76;46.53
59493;BME280;45497;43.996;22.876;2023-02-11T02:46:36;103240.38;;;-0.86;46.84
59493;BME280;45497;43.996;22.876;2023-02-11T02:49:02;103236.06;;;-0.87;46.78
59493;BME280;45497;43.996;22.876;2023-02-11T03:00:49;103237.56;;;-0.77;46.54
59493;BME280;45497;43.996;22.876;2023-02-11T03:06:10;103227.84;;;-0.70;46.35
59493;BME280;45497;43.996;22.876;2023-02-11T03:11:06;103239.19;;;-0.71;46.30
59493;BME280;45497;43.996;22.876;2023-02-11T03:13:35;103237.38;;;-0.69;46.61
59493;BME280;45497;43.996;22.876;2023-02-11T03:16:12;103229.03;;;-0.84;46.54
59493;BME280;45497;43.996;22.876;2023-02-11T03:18:42;103234.19;;;-0.81;46.53
59493;BME280;45497;43.996;22.876;2023-02-11T03:21:10;103228.28;;;-0.89;46.40
59493;BME280;45497;43.996;22.876;2023-02-11T03:23:41;103230.81;;;-0.86;46.25
59493;BME280;45497;43.996;22.876;2023-02-11T03:28:54;103231.63;;;-0.84;46.30
59493;BME280;45497;43.996;22.876;2023-02-11T03:31:35;103235.28;;;-0.92;46.44
59493;BME280;45497;43.996;22.876;2023-02-11T03:34:41;103231.91;;;-0.96;46.01
59493;BME280;45497;43.996;22.876;2023-02-11T03:37:10;103226.81;;;-1.01;46.33
59493;BME280;45497;43.996;22.876;2023-02-11T03:39:42;103229.41;;;-1.01;46.43
59493;BME280;45497;43.996;22.876;2023-02-11T03:42:12;103228.66;;;-1.07;46.38
59493;BME280;45497;43.996;22.876;2023-02-11T03:44:43;103226.19;;;-1.13;46.58
59493;BME280;45497;43.996;22.876;2023-02-11T03:47:12;103230.47;;;-1.11;46.41
59493;BME280;45497;43.996;22.876;2023-02-11T03:49:39;103229.78;;;-1.19;46.43
59493;BME280;45497;43.996;22.876;2023-02-11T03:52:07;103214.19;;;-1.21;46.34
59493;BME280;45497;43.996;22.876;2023-02-11T03:54:36;103210.66;;;-1.17;46.41
59493;BME280;45497;43.996;22.876;2023-02-11T03:57:04;103220.31;;;-1.23;46.58
59493;BME280;45497;43.996;22.876;2023-02-11T03:59:29;103224.44;;;-1.13;46.45
59493;BME280;45497;43.996;22.876;2023-02-11T04:01:55;103205.31;;;-1.10;46.27
59493;BME280;45497;43.996;22.876;2023-02-11T04:04:23;103203.63;;;-1.13;46.33
59493;BME280;45497;43.996;22.876;2023-02-11T04:06:49;103210.50;;;-1.10;46.30
59493;BME280;45497;43.996;22.876;2023-02-11T04:09:15;103211.53;;;-1.18;46.35
59493;BME280;45497;43.996;22.876;2023-02-11T04:11:40;103215.66;;;-1.07;46.32
59493;BME280;45497;43.996;22.876;2023-02-11T04:14:06;103205.88;;;-0.98;46.07
59493;BME280;45497;43.996;22.876;2023-02-11T04:16:31;103211.81;;;-0.91;46.18
59493;BME280;45497;43.996;22.876;2023-02-11T04:18:57;103205.06;;;-1.00;46.08
59493;BME280;45497;43.996;22.876;2023-02-11T04:21:22;103213.72;;;-0.99;45.92
59493;BME280;45497;43.996;22.876;2023-02-11T04:23:48;103205.13;;;-1.03;46.00
59493;BME280;45497;43.996;22.876;2023-02-11T04:26:13;103205.81;;;-0.94;46.01
59493;BME280;45497;43.996;22.876;2023-02-11T04:28:39;103201.44;;;-0.92;45.89
59493;BME280;45497;43.996;22.876;2023-02-11T04:31:04;103211.13;;;-0.99;45.92
59493;BME280;45497;43.996;22.876;2023-02-11T04:33:30;103199.28;;;-1.12;46.03
59493;BME280;45497;43.996;22.876;2023-02-11T04:35:55;103201.00;;;-1.11;46.13
59493;BME280;45497;43.996;22.876;2023-02-11T04:38:21;103199.25;;;-1.11;46.07
59493;BME280;45497;43.996;22.876;2023-02-11T04:40:48;103193.22;;;-1.13;46.03
59493;BME280;45497;43.996;22.876;2023-02-11T04:43:14;103191.47;;;-1.12;45.95
59493;BME280;45497;43.996;22.876;2023-02-11T04:45:39;103189.06;;;-1.22;45.91
59493;BME280;45497;43.996;22.876;2023-02-11T04:48:05;103182.31;;;-1.30;46.34
59493;BME280;45497;43.996;22.876;2023-02-11T04:50:30;103195.25;;;-1.27;46.24
59493;BME280;45497;43.996;22.876;2023-02-11T04:52:56;103182.22;;;-1.26;46.30
59493;BME280;45497;43.996;22.876;2023-02-11T04:55:22;103179.66;;;-1.27;46.20
59493;BME280;45497;43.996;22.876;2023-02-11T04:57:48;103193.50;;;-1.27;46.31
59493;BME280;45497;43.996;22.876;2023-02-11T05:00:14;103193.66;;;-1.33;46.42
59493;BME280;45497;43.996;22.876;2023-02-11T05:02:40;103189.28;;;-1.32;46.22
59493;BME280;45497;43.996;22.876;2023-02-11T05:05:05;103193.50;;;-1.27;46.26
59493;BME280;45497;43.996;22.876;2023-02-11T05:07:31;103188.31;;;-1.28;46.00
59493;BME280;45497;43.996;22.876;2023-02-11T05:09:56;103194.34;;;-1.26;46.23
59493;BME280;45497;43.996;22.876;2023-02-11T05:12:24;103197.28;;;-1.42;46.66
59493;BME280;45497;43.996;22.876;2023-02-11T05:14:49;103197.31;;;-1.43;46.49
59493;BME280;45497;43.996;22.876;2023-02-11T05:17:15;103192.94;;;-1.43;46.50
59493;BME280;45497;43.996;22.876;2023-02-11T05:19:41;103205.88;;;-1.38;46.39
59493;BME280;45497;43.996;22.876;2023-02-11T05:22:07;103206.00;;;-1.44;46.70
59493;BME280;45497;43.996;22.876;2023-02-11T05:24:32;103197.53;;;-1.54;46.95
59493;BME280;45497;43.996;22.876;2023-02-11T05:26:58;103203.53;;;-1.50;46.76
59493;BME280;45497;43.996;22.876;2023-02-11T05:29:24;103206.38;;;-1.64;46.97
59493;BME280;45497;43.996;22.876;2023-02-11T05:31:49;103200.16;;;-1.57;47.02
59493;BME280;45497;43.996;22.876;2023-02-11T05:34:15;103203.75;;;-1.63;46.88
59493;BME280;45497;43.996;22.876;2023-02-11T05:36:40;103207.19;;;-1.62;46.84
59493;BME280;45497;43.996;22.876;2023-02-11T05:39:06;103204.81;;;-1.73;47.23
59493;BME280;45497;43.996;22.876;2023-02-11T05:41:31;103206.50;;;-1.70;47.25
59493;BME280;45497;43.996;22.876;2023-02-11T05:43:57;103224.34;;;-1.52;47.02
59493;BME280;45497;43.996;22.876;2023-02-11T05:46:22;103216.53;;;-1.50;46.67
59493;BME280;45497;43.996;22.876;2023-02-11T05:48:48;103219.91;;;-1.45;46.71
59493;BME280;45497;43.996;22.876;2023-02-11T05:51:13;103218.28;;;-1.51;46.92
59493;BME280;45497;43.996;22.876;2023-02-11T05:53:39;103208.78;;;-1.54;46.63
59493;BME280;45497;43.996;22.876;2023-02-11T05:56:04;103217.13;;;-1.36;46.85
59493;BME280;45497;43.996;22.876;2023-02-11T05:58:31;103214.69;;;-1.45;46.90
59493;BME280;45497;43.996;22.876;2023-02-11T06:00:57;103219.75;;;-1.38;47.00
59493;BME280;45497;43.996;22.876;2023-02-11T06:03:22;103214.44;;;-1.31;46.72
59493;BME280;45497;43.996;22.876;2023-02-11T06:05:48;103217.75;;;-1.25;46.65
59493;BME280;45497;43.996;22.876;2023-02-11T06:08:13;103214.88;;;-1.12;46.59
59493;BME280;45497;43.996;22.876;2023-02-11T06:10:39;103220.88;;;-1.09;46.55
59493;BME280;45497;43.996;22.876;2023-02-11T06:13:07;103221.69;;;-1.05;46.67
59493;BME280;45497;43.996;22.876;2023-02-11T06:15:32;103205.91;;;-0.99;46.75
59493;BME280;45497;43.996;22.876;2023-02-11T06:17:58;103217.91;;;-0.92;46.43
59493;BME280;45497;43.996;22.876;2023-02-11T06:20:23;103210.94;;;-0.90;46.56
59493;BME280;45497;43.996;22.876;2023-02-11T06:22:49;103204.50;;;-1.14;46.73
59493;BME280;45497;43.996;22.876;2023-02-11T06:25:14;103209.28;;;-0.94;46.68
59493;BME280;45497;43.996;22.876;2023-02-11T06:27:40;103208.34;;;-0.90;46.43
59493;BME280;45497;43.996;22.876;2023-02-11T06:30:06;103221.31;;;-0.88;46.52
59493;BME280;45497;43.996;22.876;2023-02-11T06:32:32;103216.84;;;-0.83;46.58
59493;BME280;45497;43.996;22.876;2023-02-11T06:34:57;103215.81;;;-0.74;46.86
59493;BME280;45497;43.996;22.876;2023-02-11T06:37:23;103209.56;;;-0.67;46.44
59493;BME280;45497;43.996;22.876;2023-02-11T06:39:48;103220.75;;;-0.64;46.64
59493;BME280;45497;43.996;22.876;2023-02-11T06:42:14;103222.72;;;-0.72;46.73
59493;BME280;45497;43.996;22.876;2023-02-11T06:44:39;103226.13;;;-0.70;46.78
59493;BME280;45497;43.996;22.876;2023-02-11T06:47:05;103225.38;;;-0.75;47.25
59493;BME280;45497;43.996;22.876;2023-02-11T06:49:30;103226.81;;;-0.63;47.04
59493;BME280;45497;43.996;22.876;2023-02-11T06:51:56;103227.59;;;-0.60;47.18
59493;BME280;45497;43.996;22.876;2023-02-11T06:54:21;103222.25;;;-0.52;46.96
59493;BME280;45497;43.996;22.876;2023-02-11T06:56:47;103219.53;;;-0.49;47.09
59493;BME280;45497;43.996;22.876;2023-02-11T06:59:17;103217.63;;;-0.41;47.04
59493;BME280;45497;43.996;22.876;2023-02-11T07:01:43;103217.19;;;-0.24;46.67
59493;BME280;45497;43.996;22.876;2023-02-11T07:04:09;103209.94;;;-0.11;46.47
59493;BME280;45497;43.996;22.876;2023-02-11T07:06:35;103226.03;;;0.05;46.60
59493;BME280;45497;43.996;22.876;2023-02-11T07:09:03;103213.75;;;0.10;46.46
59493;BME280;45497;43.996;22.876;2023-02-11T07:11:29;103203.75;;;0.26;46.32
59493;BME280;45497;43.996;22.876;2023-02-11T07:14:05;103200.19;;;0.29;46.13
59493;BME280;45497;43.996;22.876;2023-02-11T07:16:33;103198.28;;;0.35;46.36
59493;BME280;45497;43.996;22.876;2023-02-11T07:18:59;103202.28;;;0.49;46.22
59493;BME280;45497;43.996;22.876;2023-02-11T07:21:24;103199.88;;;0.41;46.14
59493;BME280;45497;43.996;22.876;2023-02-11T07:23:50;103209.97;;;0.53;45.75
59493;BME280;45497;43.996;22.876;2023-02-11T07:26:18;103196.75;;;0.60;45.95
59493;BME280;45497;43.996;22.876;2023-02-11T07:28:44;103210.34;;;0.71;45.40
59493;BME280;45497;43.996;22.876;2023-02-11T07:31:16;103192.56;;;0.84;45.86
59493;BME280;45497;43.996;22.876;2023-02-11T07:33:42;103206.16;;;0.95;45.49
59493;BME280;45497;43.996;22.876;2023-02-11T07:36:09;103201.38;;;1.09;45.90
59493;BME280;45497;43.996;22.876;2023-02-11T07:38:36;103206.94;;;1.27;45.20
59493;BME280;45497;43.996;22.876;2023-02-11T07:41:03;103208.13;;;1.17;44.67
59493;BME280;45497;43.996;22.876;2023-02-11T07:43:30;103203.06;;;1.12;44.57
59493;BME280;45497;43.996;22.876;2023-02-11T07:45:56;103202.03;;;1.16;44.65
59493;BME280;45497;43.996;22.876;2023-02-11T07:48:21;103214.53;;;1.34;44.63
59493;BME280;45497;43.996;22.876;2023-02-11T07:50:47;103201.78;;;1.52;44.46
59493;BME280;45497;43.996;22.876;2023-02-11T07:53:12;103208.72;;;1.53;43.92
59493;BME280;45497;43.996;22.876;2023-02-11T07:55:38;103198.22;;;1.81;44.35
59493;BME280;45497;43.996;22.876;2023-02-11T07:58:03;103199.53;;;1.68;43.86
59493;BME280;45497;43.996;22.876;2023-02-11T08:00:28;103204.00;;;1.64;44.54
59493;BME280;45497;43.996;22.876;2023-02-11T08:02:56;103206.28;;;2.00;43.98
59493;BME280;45497;43.996;22.876;2023-02-11T08:05:21;103190.56;;;2.02;43.46
59493;BME280;45497;43.996;22.876;2023-02-11T08:07:51;103180.34;;;2.19;43.39
59493;BME280;45497;43.996;22.876;2023-02-11T08:10:16;103186.19;;;2.51;43.75
59493;BME280;45497;43.996;22.876;2023-02-11T08:12:42;103171.25;;;2.53;43.52
59493;BME280;45497;43.996;22.876;2023-02-11T08:15:08;103180.66;;;2.59;42.76
59493;BME280;45497;43.996;22.876;2023-02-11T08:17:36;103168.69;;;2.52;42.93
59493;BME280;45497;43.996;22.876;2023-02-11T08:20:04;103169.56;;;2.76;42.90
59493;BME280;45497;43.996;22.876;2023-02-11T08:22:33;103167.78;;;2.76;42.55
59493;BME280;45497;43.996;22.876;2023-02-11T08:24:59;103176.25;;;2.83;42.50
59493;BME280;45497;43.996;22.876;2023-02-11T08:27:25;103170.25;;;3.03;42.30
59493;BME280;45497;43.996;22.876;2023-02-11T08:29:54;103160.63;;;3.03;42.16
59493;BME280;45497;43.996;22.876;2023-02-11T08:32:20;103168.00;;;3.16;43.32
59493;BME280;45497;43.996;22.876;2023-02-11T08:34:50;103164.75;;;3.31;41.86
59493;BME280;45497;43.996;22.876;2023-02-11T08:37:16;103151.97;;;3.23;41.69
59493;BME280;45497;43.996;22.876;2023-02-11T08:39:41;103153.09;;;3.38;42.09
59493;BME280;45497;43.996;22.876;2023-02-11T08:42:07;103154.03;;;3.37;41.71
59493;BME280;45497;43.996;22.876;2023-02-11T08:44:32;103152.25;;;3.38;40.85
59493;BME280;45497;43.996;22.876;2023-02-11T08:46:58;103160.53;;;3.27;41.24
59493;BME280;45497;43.996;22.876;2023-02-11T08:49:23;103159.75;;;3.25;40.65
59493;BME280;45497;43.996;22.876;2023-02-11T08:51:49;103146.72;;;3.01;41.13
59493;BME280;45497;43.996;22.876;2023-02-11T08:54:15;103157.72;;;2.87;40.90
59493;BME280;45497;43.996;22.876;2023-02-11T08:56:40;103151.09;;;2.79;40.64
59493;BME280;45497;43.996;22.876;2023-02-11T08:59:06;103159.56;;;3.08;40.31
59493;BME280;45497;43.996;22.876;2023-02-11T09:01:33;103149.47;;;2.98;41.14
59493;BME280;45497;43.996;22.876;2023-02-11T09:03:59;103149.34;;;3.23;41.12
59493;BME280;45497;43.996;22.876;2023-02-11T09:06:25;103138.25;;;3.39;40.20
59493;BME280;45497;43.996;22.876;2023-02-11T09:08:53;103155.97;;;3.32;40.46
59493;BME280;45497;43.996;22.876;2023-02-11T09:11:23;103147.78;;;3.40;40.29
59493;BME280;45497;43.996;22.876;2023-02-11T09:13:49;103153.47;;;3.51;40.12
59493;BME280;45497;43.996;22.876;2023-02-11T09:16:20;103141.59;;;3.42;39.65
59493;BME280;45497;43.996;22.876;2023-02-11T09:18:47;103149.88;;;3.32;40.09
59493;BME280;45497;43.996;22.876;2023-02-11T09:21:15;103141.72;;;3.60;40.28
59493;BME280;45497;43.996;22.876;2023-02-11T09:23:41;103134.91;;;3.97;40.51
59493;BME280;45497;43.996;22.876;2023-02-11T09:26:16;103149.59;;;4.01;40.31
59493;BME280;45497;43.996;22.876;2023-02-11T09:28:42;103146.25;;;3.97;39.51
59493;BME280;45497;43.996;22.876;2023-02-11T09:31:09;103141.47;;;4.07;39.30
59493;BME280;45497;43.996;22.876;2023-02-11T09:33:36;103140.66;;;4.05;39.07
59493;BME280;45497;43.996;22.876;2023-02-11T09:36:03;103136.00;;;4.12;39.66
59493;BME280;45497;43.996;22.876;2023-02-11T09:38:30;103123.41;;;3.99;38.95
59493;BME280;45497;43.996;22.876;2023-02-11T09:40:56;103120.00;;;4.37;39.01
59493;BME280;45497;43.996;22.876;2023-02-11T09:43:33;103119.28;;;4.33;38.88
59493;BME280;45497;43.996;22.876;2023-02-11T09:46:00;103111.06;;;4.60;38.93
59493;BME280;45497;43.996;22.876;2023-02-11T09:48:29;103101.94;;;4.86;39.76
59493;BME280;45497;43.996;22.876;2023-02-11T09:51:02;103088.31;;;4.59;38.20
59493;BME280;45497;43.996;22.876;2023-02-11T09:53:32;103088.88;;;4.66;38.73
59493;BME280;45497;43.996;22.876;2023-02-11T09:56:01;103083.56;;;4.86;38.33
59493;BME280;45497;43.996;22.876;2023-02-11T09:58:33;103090.94;;;4.78;37.95
59493;BME280;45497;43.996;22.876;2023-02-11T10:01:11;103083.94;;;4.96;38.06
59493;BME280;45497;43.996;22.876;2023-02-11T10:06:35;103072.59;;;4.95;38.13
59493;BME280;45497;43.996;22.876;2023-02-11T10:23:33;103028.75;;;5.82;38.01
59493;BME280;45497;43.996;22.876;2023-02-11T10:26:01;103039.06;;;5.69;37.68
59493;BME280;45497;43.996;22.876;2023-02-11T10:28:33;103018.97;;;5.50;37.72
59493;BME280;45497;43.996;22.876;2023-02-11T10:31:22;103020.84;;;5.48;37.88
59493;BME280;45497;43.996;22.876;2023-02-11T10:34:05;103026.03;;;5.32;37.55
59493;BME280;45497;43.996;22.876;2023-02-11T10:36:38;103012.72;;;5.53;37.69
59493;BME280;45497;43.996;22.876;2023-02-11T10:39:22;103002.97;;;5.55;37.72
59493;BME280;45497;43.996;22.876;2023-02-11T10:42:08;103000.13;;;5.91;38.64
59493;BME280;45497;43.996;22.876;2023-02-11T10:44:41;102995.84;;;6.22;37.19
59493;BME280;45497;43.996;22.876;2023-02-11T10:47:19;102983.59;;;5.89;35.87
59493;BME280;45497;43.996;22.876;2023-02-11T10:49:47;102974.28;;;5.66;36.39
59493;BME280;45497;43.996;22.876;2023-02-11T10:52:21;102979.16;;;5.90;36.55
59493;BME280;45497;43.996;22.876;2023-02-11T10:58:17;102959.28;;;5.84;36.15
59493;BME280;45497;43.996;22.876;2023-02-11T11:02:42;102954.31;;;5.96;35.16
59493;BME280;45497;43.996;22.876;2023-02-11T11:05:17;102948.69;;;5.86;35.79
59493;BME280;45497;43.996;22.876;2023-02-11T11:08:03;102943.19;;;6.06;35.17
59493;BME280;45497;43.996;22.876;2023-02-11T11:11:23;102944.88;;;6.39;36.10
59493;BME280;45497;43.996;22.876;2023-02-11T11:18:37;102930.44;;;6.61;35.40
59493;BME280;45497;43.996;22.876;2023-02-11T11:21:21;102925.31;;;6.74;35.77
59493;BME280;45497;43.996;22.876;2023-02-11T11:26:20;102915.38;;;6.32;34.86
59493;BME280;45497;43.996;22.876;2023-02-11T11:31:17;102907.59;;;6.15;33.84
59493;BME280;45497;43.996;22.876;2023-02-11T11:33:45;102896.41;;;6.42;33.68
59493;BME280;45497;43.996;22.876;2023-02-11T11:36:14;102897.38;;;6.55;33.07
59493;BME280;45497;43.996;22.876;2023-02-11T11:38:56;102902.53;;;6.42;32.76
59493;BME280;45497;43.996;22.876;2023-02-11T11:41:30;102881.25;;;6.61;32.39
59493;BME280;45497;43.996;22.876;2023-02-11T11:44:13;102883.06;;;6.89;32.66
59493;BME280;45497;43.996;22.876;2023-02-11T11:46:44;102887.56;;;6.87;32.45
59493;BME280;45497;43.996;22.876;2023-02-11T11:49:28;102867.69;;;6.82;31.99
59493;BME280;45497;43.996;22.876;2023-02-11T11:52:45;102874.38;;;6.73;31.51
59493;BME280;45497;43.996;22.876;2023-02-11T11:54:46;102862.34;;;6.98;31.86
59493;BME280;45497;43.996;22.876;2023-02-11T11:57:17;102871.66;;;6.89;31.27
59493;BME280;45497;43.996;22.876;2023-02-11T11:59:46;102866.13;;;6.19;31.43
59493;BME280;45497;43.996;22.876;2023-02-11T12:05:36;102859.44;;;7.17;32.25
59493;BME280;45497;43.996;22.876;2023-02-11T12:15:44;102825.44;;;6.98;31.34
59493;BME280;45497;43.996;22.876;2023-02-11T12:21:26;102822.31;;;6.91;30.72
59493;BME280;45497;43.996;22.876;2023-02-11T12:26:48;102819.91;;;7.02;30.38
59493;BME280;45497;43.996;22.876;2023-02-11T12:29:39;102810.44;;;7.13;30.23
59493;BME280;45497;43.996;22.876;2023-02-11T12:32:30;102801.59;;;7.28;30.72
59493;BME280;45497;43.996;22.876;2023-02-11T12:38:10;102791.25;;;7.52;30.07
59493;BME280;45497;43.996;22.876;2023-02-11T12:43:23;102773.13;;;7.60;30.66
59493;BME280;45497;43.996;22.876;2023-02-11T12:54:37;102769.81;;;7.44;30.55
59493;BME280;45497;43.996;22.876;2023-02-11T12:57:22;102757.34;;;7.73;30.73
59493;BME280;45497;43.996;22.876;2023-02-11T12:59:53;102761.69;;;7.74;30.41
59493;BME280;45497;43.996;22.876;2023-02-11T13:05:00;102743.88;;;7.91;30.60
59493;BME280;45497;43.996;22.876;2023-02-11T13:07:34;102746.91;;;7.84;30.82
59493;BME280;45497;43.996;22.876;2023-02-11T13:10:18;102760.38;;;7.94;31.24
59493;BME280;45497;43.996;22.876;2023-02-11T13:12:47;102743.81;;;8.05;31.26
59493;BME280;45497;43.996;22.876;2023-02-11T13:15:34;102737.66;;;8.04;31.21
59493;BME280;45497;43.996;22.876;2023-02-11T13:18:18;102742.19;;;8.02;31.39
59493;BME280;45497;43.996;22.876;2023-02-11T13:21:39;102720.22;;;8.02;31.27
59493;BME280;45497;43.996;22.876;2023-02-11T13:26:50;102719.94;;;7.66;31.66
59493;BME280;45497;43.996;22.876;2023-02-11T13:32:12;102706.56;;;7.82;31.24
59493;BME280;45497;43.996;22.876;2023-02-11T13:37:19;102704.91;;;7.94;31.97
59493;BME280;45497;43.996;22.876;2023-02-11T13:40:06;102701.78;;;7.62;31.18
59493;BME280;45497;43.996;22.876;2023-02-11T13:42:55;102696.47;;;7.49;31.78
59493;BME280;45497;43.996;22.876;2023-02-11T13:45:41;102699.88;;;7.64;31.88
59493;BME280;45497;43.996;22.876;2023-02-11T13:50:52;102685.97;;;7.75;31.55
59493;BME280;45497;43.996;22.876;2023-02-11T13:53:18;102695.34;;;7.66;31.57
59493;BME280;45497;43.996;22.876;2023-02-11T13:55:46;102691.72;;;7.54;31.79
59493;BME280;45497;43.996;22.876;2023-02-11T14:03:28;102689.78;;;7.43;32.29
59493;BME280;45497;43.996;22.876;2023-02-11T14:06:27;102681.78;;;7.85;32.37
59493;BME280;45497;43.996;22.876;2023-02-11T14:24:50;102666.66;;;8.00;31.59
59493;BME280;45497;43.996;22.876;2023-02-11T14:27:41;102663.06;;;8.14;31.60
59493;BME280;45497;43.996;22.876;2023-02-11T14:35:58;102656.72;;;8.16;28.97
59493;BME280;45497;43.996;22.876;2023-02-11T14:41:18;102655.56;;;8.08;29.07
59493;BME280;45497;43.996;22.876;2023-02-11T14:43:51;102653.75;;;8.21;29.16
59493;BME280;45497;43.996;22.876;2023-02-11T14:46:18;102655.25;;;8.12;29.37
59493;BME280;45497;43.996;22.876;2023-02-11T14:48:51;102647.84;;;8.17;29.42
59493;BME280;45497;43.996;22.876;2023-02-11T14:51:26;102645.84;;;8.08;28.99
59493;BME280;45497;43.996;22.876;2023-02-11T14:53:55;102633.69;;;8.18;29.38
59493;BME280;45497;43.996;22.876;2023-02-11T14:56:27;102637.69;;;8.24;29.43
59493;BME280;45497;43.996;22.876;2023-02-11T14:58:56;102636.22;;;8.20;29.65
59493;BME280;45497;43.996;22.876;2023-02-11T15:01:29;102632.22;;;8.27;29.97
59493;BME280;45497;43.996;22.876;2023-02-11T15:04:00;102633.38;;;8.10;29.68
59493;BME280;45497;43.996;22.876;2023-02-11T15:06:32;102640.16;;;8.14;29.79
59493;BME280;45497;43.996;22.876;2023-02-11T15:09:04;102639.38;;;7.99;30.19